Time;durP1;ratioP1;P1;durP2;ratioP2;P2;SDS_P1;SDS_P2;PMS_P1;PMS_P2;Temp;Humidity;BMP_temperature;BMP_pressure;BME280_temperature;BME280_humidity;BME280_pressure;Samples;Min_cycle;Max_cycle;Signal;HPM_P1;HPM_P2
2021/04/30 00:01:33;;;;;;;2.70;2.50;;;10.30;99.90;;;;;;4974217;28;20475;-51
2021/04/30 00:04:00;;;;;;;2.70;2.50;;;10.40;99.90;;;;;;4974422;28;20447;-50
2021/04/30 00:06:27;;;;;;;2.63;2.40;;;10.40;99.90;;;;;;4973609;28;20498;-50
2021/04/30 00:08:53;;;;;;;3.87;2.80;;;10.30;99.90;;;;;;4974277;28;20455;-50
2021/04/30 00:11:20;;;;;;;4.27;2.53;;;10.30;99.90;;;;;;4973762;28;20498;-49
2021/04/30 00:13:46;;;;;;;3.50;2.50;;;10.40;99.90;;;;;;4974043;28;20471;-50
2021/04/30 00:16:13;;;;;;;2.73;2.47;;;10.20;99.90;;;;;;4973858;28;20455;-50
2021/04/30 00:18:39;;;;;;;3.30;2.50;;;10.30;99.90;;;;;;4974284;28;20482;-49
2021/04/30 00:21:07;;;;;;;3.27;2.17;;;10.30;99.90;;;;;;4974086;28;20529;-50
2021/04/30 00:23:34;;;;;;;2.70;2.40;;;10.30;99.90;;;;;;4974063;28;20455;-50
2021/04/30 00:26:03;;;;;;;2.30;2.10;;;10.20;99.90;;;;;;4974007;28;20479;-49
2021/04/30 00:28:30;;;;;;;2.53;2.27;;;10.30;99.90;;;;;;4974044;28;20460;-50
2021/04/30 00:30:57;;;;;;;2.60;2.40;;;10.20;99.90;;;;;;4973914;28;20451;-49
2021/04/30 00:33:24;;;;;;;3.53;2.37;;;10.20;99.90;;;;;;4974141;28;20447;-50
2021/04/30 00:35:51;;;;;;;2.77;2.23;;;10.30;99.90;;;;;;4973626;28;20562;-50
2021/04/30 00:38:19;;;;;;;4.37;2.00;;;10.40;99.90;;;;;;4973952;28;20494;-50
2021/04/30 00:40:46;;;;;;;3.00;2.37;;;10.30;99.90;;;;;;4973746;28;20451;-50
2021/04/30 00:43:13;;;;;;;2.23;2.03;;;10.30;99.90;;;;;;4974104;28;20466;-50
2021/04/30 00:45:39;;;;;;;2.30;2.10;;;10.50;99.90;;;;;;4973274;28;20474;-50
2021/04/30 00:48:08;;;;;;;2.80;2.60;;;10.50;99.90;;;;;;4973737;28;20447;-50
2021/04/30 00:50:35;;;;;;;3.37;3.07;;;10.60;99.90;;;;;;4973519;28;20459;-50
2021/04/30 00:53:02;;;;;;;3.67;2.80;;;10.50;99.90;;;;;;5013506;22;20502;-54
2021/04/30 00:55:29;;;;;;;3.23;2.87;;;10.50;99.90;;;;;;4992454;28;20622;-54
2021/04/30 00:57:58;;;;;;;2.90;2.60;;;10.50;99.90;;;;;;4992730;28;20497;-54
2021/04/30 01:00:26;;;;;;;2.90;2.60;;;10.30;99.90;;;;;;4977320;28;20462;-54
2021/04/30 01:02:53;;;;;;;3.50;2.57;;;10.20;99.90;;;;;;4973990;28;20471;-54
2021/04/30 01:05:22;;;;;;;2.77;2.40;;;10.20;99.90;;;;;;4986481;28;20451;-54
2021/04/30 01:07:49;;;;;;;3.63;3.23;;;10.40;99.90;;;;;;4973499;28;20451;-54
2021/04/30 01:10:16;;;;;;;2.73;2.53;;;10.40;99.90;;;;;;4974469;28;20964;-54
2021/04/30 01:12:44;;;;;;;3.10;2.77;;;10.40;99.90;;;;;;4975388;28;20470;-54
2021/04/30 01:15:12;;;;;;;3.10;2.90;;;10.50;99.90;;;;;;4992743;28;20454;-54
2021/04/30 01:17:39;;;;;;;4.20;2.97;;;10.40;99.90;;;;;;4987468;28;20491;-54
2021/04/30 01:20:08;;;;;;;3.20;2.90;;;10.40;99.90;;;;;;4972917;28;20987;-54
2021/04/30 01:22:37;;;;;;;2.83;2.57;;;10.40;99.90;;;;;;4973200;28;20471;-54
2021/04/30 01:25:06;;;;;;;2.90;2.53;;;10.50;99.90;;;;;;4973524;28;20506;-54
2021/04/30 01:27:32;;;;;;;3.17;2.70;;;10.50;99.90;;;;;;4973218;28;20450;-54
2021/04/30 01:29:59;;;;;;;3.30;2.70;;;10.50;99.90;;;;;;4973128;28;20463;-54
2021/04/30 01:32:25;;;;;;;2.97;2.63;;;10.40;99.90;;;;;;4978940;28;20474;-55
2021/04/30 01:34:52;;;;;;;3.40;3.10;;;10.40;99.90;;;;;;4992162;28;20455;-54
2021/04/30 01:37:18;;;;;;;2.87;2.57;;;10.30;99.90;;;;;;4991537;28;20478;-54
2021/04/30 01:39:46;;;;;;;3.63;3.10;;;10.20;99.90;;;;;;4992425;28;20462;-54
2021/04/30 01:42:12;;;;;;;4.30;2.87;;;10.10;99.90;;;;;;4992439;28;20517;-54
2021/04/30 01:44:39;;;;;;;3.90;3.13;;;10.20;99.90;;;;;;4990425;28;20822;-54
2021/04/30 01:47:05;;;;;;;3.70;3.00;;;10.20;99.90;;;;;;4984300;28;20458;-54
2021/04/30 01:49:32;;;;;;;3.60;2.90;;;10.20;99.90;;;;;;4972859;28;20455;-54
2021/04/30 01:51:59;;;;;;;4.43;3.40;;;10.10;99.90;;;;;;4973733;28;20856;-54
2021/04/30 01:54:28;;;;;;;4.77;3.30;;;10.10;99.90;;;;;;4973141;28;20447;-54
2021/04/30 01:56:55;;;;;;;4.07;3.67;;;10.20;99.90;;;;;;4973905;28;20491;-54
2021/04/30 01:59:22;;;;;;;6.77;3.40;;;10.20;99.90;;;;;;4972804;28;20911;-55
2021/04/30 02:01:48;;;;;;;5.50;4.13;;;10.20;99.90;;;;;;4980475;28;20476;-54
2021/04/30 02:04:16;;;;;;;4.20;3.30;;;10.20;99.90;;;;;;4992175;28;20533;-54
2021/04/30 02:06:44;;;;;;;3.27;2.97;;;10.20;99.90;;;;;;4992215;28;20457;-54
2021/04/30 02:09:10;;;;;;;4.10;3.00;;;10.10;99.90;;;;;;4992198;28;20978;-54
2021/04/30 02:11:37;;;;;;;4.60;2.97;;;10.20;99.90;;;;;;4982543;28;20534;-54
2021/04/30 02:14:06;;;;;;;5.70;3.47;;;10.30;99.90;;;;;;4974068;28;20509;-54
2021/04/30 02:16:34;;;;;;;5.80;3.73;;;10.20;99.90;;;;;;4979374;28;20483;-54
2021/04/30 02:19:01;;;;;;;4.30;3.63;;;10.20;99.90;;;;;;4977931;28;20552;-54
2021/04/30 02:21:27;;;;;;;8.43;4.20;;;10.20;99.90;;;;;;4990252;28;20482;-54
2021/04/30 02:23:55;;;;;;;4.63;3.40;;;10.10;99.90;;;;;;4972734;28;20451;-54
2021/04/30 02:26:25;;;;;;;4.50;3.60;;;10.00;99.90;;;;;;4972412;28;20455;-54
2021/04/30 02:28:52;;;;;;;4.60;3.70;;;9.90;99.90;;;;;;4973748;28;20459;-55
2021/04/30 02:31:19;;;;;;;4.03;3.53;;;9.70;99.90;;;;;;4978717;28;20479;-54
2021/04/30 02:33:46;;;;;;;4.67;3.90;;;9.70;99.90;;;;;;4976455;28;20451;-53
2021/04/30 02:36:12;;;;;;;4.80;4.27;;;9.70;99.90;;;;;;4976048;28;20470;-54
2021/04/30 02:38:39;;;;;;;4.20;3.60;;;9.90;99.90;;;;;;4976352;28;20447;-54
2021/04/30 02:41:05;;;;;;;7.53;3.90;;;9.90;99.90;;;;;;4976170;28;20534;-54
2021/04/30 02:43:32;;;;;;;4.53;4.13;;;10.00;99.90;;;;;;4985109;28;20446;-54
2021/04/30 02:46:01;;;;;;;4.40;4.00;;;9.80;99.90;;;;;;4979510;28;20454;-54
2021/04/30 02:48:32;;;;;;;5.17;4.50;;;9.80;99.90;;;;;;4976220;28;20497;-55
2021/04/30 02:51:01;;;;;;;7.23;4.20;;;9.90;99.90;;;;;;4976257;28;20446;-55
2021/04/30 02:53:27;;;;;;;4.23;3.83;;;9.70;99.90;;;;;;4995512;28;20446;-54
2021/04/30 02:55:54;;;;;;;7.17;4.73;;;9.70;99.90;;;;;;4995186;28;20874;-54
2021/04/30 02:58:21;;;;;;;7.10;4.37;;;9.80;99.90;;;;;;4994802;28;20862;-53
2021/04/30 03:00:48;;;;;;;4.37;3.97;;;9.90;99.90;;;;;;4994754;28;20454;-54
2021/04/30 03:03:15;;;;;;;5.20;4.70;;;10.00;99.90;;;;;;4995332;28;20470;-54
2021/04/30 03:05:42;;;;;;;4.60;4.20;;;10.00;99.90;;;;;;4992350;28;20451;-54
2021/04/30 03:08:09;;;;;;;9.00;6.40;;;10.00;99.90;;;;;;4986362;28;20953;-54
2021/04/30 03:10:35;;;;;;;6.20;4.80;;;10.00;99.90;;;;;;4976328;28;20447;-54
2021/04/30 03:13:02;;;;;;;4.80;4.30;;;9.90;99.90;;;;;;4987305;28;20463;-54
2021/04/30 03:15:29;;;;;;;8.90;5.80;;;10.00;99.90;;;;;;4987109;28;20459;-54
2021/04/30 03:17:55;;;;;;;5.30;4.77;;;10.00;99.90;;;;;;4994992;28;20485;-54
2021/04/30 03:20:22;;;;;;;6.00;5.40;;;9.90;99.90;;;;;;4976597;28;20443;-54
2021/04/30 03:22:50;;;;;;;6.60;5.00;;;9.70;99.90;;;;;;4975370;28;20985;-54
2021/04/30 03:25:17;;;;;;;6.00;4.90;;;9.70;99.90;;;;;;4975075;28;20448;-54
2021/04/30 03:27:44;;;;;;;6.37;5.10;;;9.90;99.90;;;;;;4976770;28;20463;-54
2021/04/30 03:30:13;;;;;;;6.47;5.20;;;10.00;99.90;;;;;;4987813;28;20463;-54
2021/04/30 03:32:40;;;;;;;6.20;4.90;;;10.10;99.90;;;;;;4988996;28;20525;-54
2021/04/30 03:35:08;;;;;;;7.43;5.47;;;10.10;99.90;;;;;;4985306;28;20821;-54
2021/04/30 03:37:35;;;;;;;6.10;5.00;;;10.10;99.90;;;;;;4988650;28;20478;-54
2021/04/30 03:40:03;;;;;;;6.03;4.90;;;10.10;99.90;;;;;;4981282;28;20839;-54
2021/04/30 03:42:30;;;;;;;10.87;6.73;;;10.20;99.90;;;;;;4988864;28;20895;-54
2021/04/30 03:44:56;;;;;;;7.57;5.70;;;10.20;99.90;;;;;;4974720;28;20459;-54
2021/04/30 03:47:23;;;;;;;8.17;6.07;;;10.20;99.90;;;;;;4981022;28;20458;-54
2021/04/30 03:49:49;;;;;;;7.97;5.73;;;10.20;99.90;;;;;;4974664;28;20478;-54
2021/04/30 03:52:15;;;;;;;8.20;5.40;;;10.20;99.90;;;;;;4989680;28;20864;-55
2021/04/30 03:54:42;;;;;;;6.70;5.50;;;10.20;99.90;;;;;;4979349;28;20459;-54
2021/04/30 03:57:09;;;;;;;6.00;5.10;;;10.20;99.90;;;;;;4974924;28;20506;-54
2021/04/30 03:59:36;;;;;;;5.50;4.80;;;10.20;99.90;;;;;;4977817;28;20957;-54
2021/04/30 04:02:03;;;;;;;8.10;5.70;;;10.20;99.90;;;;;;4986414;28;20541;-54
2021/04/30 04:04:32;;;;;;;7.57;5.60;;;10.00;99.90;;;;;;4981899;28;20462;-54
2021/04/30 04:06:59;;;;;;;11.73;6.27;;;10.10;99.90;;;;;;4981289;28;20452;-54
2021/04/30 04:09:29;;;;;;;10.07;6.63;;;10.20;99.90;;;;;;4974490;28;20451;-55
2021/04/30 04:11:55;;;;;;;12.40;6.43;;;10.20;99.90;;;;;;4975054;28;20475;-54
2021/04/30 04:14:22;;;;;;;9.97;6.40;;;10.20;99.90;;;;;;4979655;28;20453;-54
2021/04/30 04:16:49;;;;;;;8.27;6.27;;;10.30;99.90;;;;;;4977493;28;20546;-54
2021/04/30 04:19:17;;;;;;;8.03;5.70;;;10.30;99.90;;;;;;4991733;28;21079;-54
2021/04/30 04:21:44;;;;;;;8.13;6.00;;;10.30;99.90;;;;;;4988581;28;20533;-54
2021/04/30 04:24:10;;;;;;;8.40;6.37;;;10.40;99.90;;;;;;4984814;28;20459;-55
2021/04/30 04:26:37;;;;;;;7.60;6.03;;;10.30;99.90;;;;;;4974248;28;20454;-54
2021/04/30 04:29:04;;;;;;;11.70;6.70;;;10.30;99.90;;;;;;4974298;28;20478;-54
2021/04/30 04:31:31;;;;;;;7.80;5.97;;;10.30;99.90;;;;;;4974593;28;20475;-54
2021/04/30 04:33:58;;;;;;;8.90;6.33;;;10.30;99.90;;;;;;4979110;28;21021;-54
2021/04/30 04:36:24;;;;;;;9.87;6.77;;;10.40;99.90;;;;;;4993325;28;20454;-55
2021/04/30 04:38:51;;;;;;;10.43;6.70;;;10.30;99.90;;;;;;4982954;28;20459;-54
2021/04/30 04:41:17;;;;;;;11.00;6.97;;;10.20;99.90;;;;;;4982849;28;20447;-54
2021/04/30 04:43:44;;;;;;;8.93;6.70;;;10.30;99.90;;;;;;4989761;28;20451;-54
2021/04/30 04:46:10;;;;;;;10.53;6.80;;;10.30;99.90;;;;;;4974764;28;20455;-54
2021/04/30 04:48:38;;;;;;;9.47;6.93;;;10.20;99.90;;;;;;4974886;28;20447;-54
2021/04/30 04:51:05;;;;;;;7.17;6.23;;;10.30;99.90;;;;;;4973814;28;20509;-54
2021/04/30 04:53:31;;;;;;;10.30;7.80;;;10.30;99.90;;;;;;4973394;28;20447;-54
2021/04/30 04:55:58;;;;;;;9.10;7.27;;;10.20;99.90;;;;;;4973563;28;20447;-54
2021/04/30 04:58:28;;;;;;;11.00;7.07;;;10.10;99.90;;;;;;4975648;28;21426;-54
2021/04/30 05:00:55;;;;;;;8.87;6.90;;;10.20;99.90;;;;;;4980122;28;20451;-54
2021/04/30 05:03:22;;;;;;;11.43;6.93;;;10.30;99.90;;;;;;4973092;28;20570;-54
2021/04/30 05:05:49;;;;;;;9.23;6.60;;;10.40;99.90;;;;;;4982529;28;20476;-54
2021/04/30 05:08:16;;;;;;;9.37;7.00;;;10.50;99.90;;;;;;4977817;28;20443;-54
2021/04/30 05:10:42;;;;;;;15.37;9.60;;;10.60;99.90;;;;;;4983737;28;20459;-54
2021/04/30 05:13:09;;;;;;;10.70;7.80;;;10.60;99.90;;;;;;4977660;28;20466;-54
2021/04/30 05:15:35;;;;;;;12.73;8.40;;;10.50;99.90;;;;;;4976345;28;20458;-54
2021/04/30 05:18:02;;;;;;;10.80;7.80;;;10.40;99.90;;;;;;4975112;28;20518;-53
2021/04/30 05:20:28;;;;;;;9.90;7.20;;;10.50;99.90;;;;;;4973923;28;20459;-53
2021/04/30 05:22:55;;;;;;;9.23;7.20;;;10.60;99.90;;;;;;4982431;28;20478;-53
2021/04/30 05:25:22;;;;;;;8.33;7.10;;;10.50;99.90;;;;;;4974584;28;20455;-53
2021/04/30 05:27:49;;;;;;;11.73;7.87;;;10.70;99.90;;;;;;4976010;28;20453;-53
2021/04/30 05:30:16;;;;;;;10.10;6.83;;;10.60;99.90;;;;;;4982601;28;20462;-53
2021/04/30 05:32:42;;;;;;;11.90;7.37;;;10.80;99.90;;;;;;4985701;28;20479;-53
2021/04/30 05:35:12;;;;;;;9.07;6.77;;;10.90;99.90;;;;;;4976172;28;20833;-53
2021/04/30 05:37:38;;;;;;;9.90;6.60;;;11.00;99.90;;;;;;4973351;28;20553;-53
2021/04/30 05:40:07;;;;;;;9.33;7.37;;;11.20;99.90;;;;;;4981309;28;22350;-53
2021/04/30 05:42:34;;;;;;;9.60;6.47;;;11.30;99.90;;;;;;4976871;28;20472;-53
2021/04/30 05:45:00;;;;;;;6.97;5.53;;;11.30;99.90;;;;;;4983166;28;20448;-53
2021/04/30 05:47:27;;;;;;;7.33;5.20;;;11.50;99.90;;;;;;4984139;28;20490;-53
2021/04/30 05:49:53;;;;;;;6.40;5.33;;;11.50;99.90;;;;;;4987250;28;20827;-53
2021/04/30 05:52:20;;;;;;;7.83;6.03;;;11.50;99.90;;;;;;4991193;28;20478;-53
2021/04/30 05:54:46;;;;;;;7.43;5.33;;;11.60;99.90;;;;;;4976497;28;20947;-53
2021/04/30 05:57:13;;;;;;;5.10;4.60;;;11.70;99.90;;;;;;4982347;28;20552;-53
2021/04/30 05:59:40;;;;;;;7.40;5.27;;;11.70;99.90;;;;;;4991927;28;20450;-53
2021/04/30 06:02:07;;;;;;;7.73;4.40;;;11.90;99.90;;;;;;4983131;28;20475;-53
2021/04/30 06:04:33;;;;;;;7.00;5.33;;;12.20;99.90;;;;;;4991827;28;20964;-53
2021/04/30 06:07:00;;;;;;;5.27;4.77;;;12.20;99.90;;;;;;4991204;28;20451;-53
2021/04/30 06:09:26;;;;;;;7.07;5.00;;;12.60;99.90;;;;;;4984653;28;20820;-54
2021/04/30 06:11:54;;;;;;;6.27;5.07;;;12.60;99.90;;;;;;4988500;28;20478;-53
2021/04/30 06:14:22;;;;;;;8.13;5.17;;;12.80;99.90;;;;;;4984022;28;20447;-53
2021/04/30 06:16:48;;;;;;;8.13;5.00;;;13.00;99.90;;;;;;4991008;28;20558;-54
2021/04/30 06:19:15;;;;;;;5.00;4.00;;;13.80;99.90;;;;;;4977590;28;20451;-53
2021/04/30 06:21:41;;;;;;;4.00;3.60;;;15.10;99.90;;;;;;4995778;28;20473;-55
2021/04/30 06:24:08;;;;;;;4.50;3.40;;;16.40;99.90;;;;;;4996189;28;20928;-54
2021/04/30 06:26:35;;;;;;;3.67;3.17;;;17.40;99.90;;;;;;4996114;28;20458;-54
2021/04/30 06:29:01;;;;;;;3.83;1.90;;;18.00;99.90;;;;;;4983809;28;21072;-54
2021/04/30 06:31:29;;;;;;;2.80;1.90;;;18.30;99.90;;;;;;4989498;28;21069;-54
2021/04/30 06:33:55;;;;;;;2.40;2.20;;;18.00;99.90;;;;;;4983398;28;20499;-54
2021/04/30 06:36:22;;;;;;;3.30;2.77;;;17.80;99.90;;;;;;4978623;28;20876;-54
2021/04/30 06:38:48;;;;;;;4.20;2.73;;;17.90;99.90;;;;;;4976572;28;20605;-54
2021/04/30 06:41:15;;;;;;;3.37;3.07;;;17.60;99.90;;;;;;4988424;28;20485;-54
2021/04/30 06:43:41;;;;;;;4.77;3.20;;;17.70;99.90;;;;;;4995802;28;20458;-56
2021/04/30 06:46:08;;;;;;;5.90;3.27;;;17.70;99.90;;;;;;4993701;28;20481;-54
2021/04/30 06:48:35;;;;;;;6.00;3.77;;;18.10;99.90;;;;;;4983121;28;20451;-55
2021/04/30 06:51:02;;;;;;;4.37;3.80;;;18.40;99.90;;;;;;4976032;28;20467;-55
2021/04/30 06:53:28;;;;;;;3.57;3.27;;;18.90;99.90;;;;;;5017165;23;20873;-53
2021/04/30 06:55:55;;;;;;;4.30;3.90;;;19.00;99.90;;;;;;4994194;28;20485;-52
2021/04/30 06:58:21;;;;;;;4.67;4.27;;;18.90;99.90;;;;;;4995460;28;20486;-52
2021/04/30 07:00:48;;;;;;;4.83;3.90;;;18.70;99.90;;;;;;4994938;28;20455;-53
2021/04/30 07:03:14;;;;;;;4.40;4.00;;;19.00;99.90;;;;;;4979531;28;20471;-53
2021/04/30 07:05:41;;;;;;;3.90;3.50;;;19.00;99.90;;;;;;4975425;28;20455;-52
2021/04/30 07:08:08;;;;;;;3.53;3.00;;;19.00;99.90;;;;;;4974975;28;20474;-52
2021/04/30 07:10:35;;;;;;;2.80;2.03;;;19.10;99.90;;;;;;4974943;28;20459;-53
2021/04/30 07:13:08;;;;;;;2.93;2.60;;;19.60;99.90;;;;;;4975364;28;20485;-53
2021/04/30 07:15:35;;;;;;;2.70;2.30;;;20.30;99.90;;;;;;4975479;28;20452;-52
2021/04/30 07:18:01;;;;;;;3.33;3.03;;;20.70;99.90;;;;;;4974440;28;20526;-52
2021/04/30 07:20:30;;;;;;;2.80;2.60;;;21.00;99.90;;;;;;4975648;28;20447;-52
2021/04/30 07:22:57;;;;;;;3.30;2.20;;;20.60;99.90;;;;;;4974653;28;20590;-52
2021/04/30 07:25:24;;;;;;;2.43;2.23;;;20.20;99.90;;;;;;4974595;28;20451;-54
2021/04/30 07:27:50;;;;;;;3.67;2.80;;;20.00;99.90;;;;;;4974896;28;20816;-54
2021/04/30 07:30:18;;;;;;;3.87;2.70;;;20.10;99.90;;;;;;4975252;28;20447;-54
2021/04/30 07:32:45;;;;;;;2.50;2.30;;;19.70;99.90;;;;;;4975041;28;21023;-54
2021/04/30 07:35:11;;;;;;;1.90;1.80;;;19.60;99.90;;;;;;4975372;28;20459;-55
2021/04/30 07:37:38;;;;;;;2.80;2.20;;;20.10;99.90;;;;;;4974715;28;20486;-54
2021/04/30 07:40:08;;;;;;;2.10;2.00;;;20.20;99.90;;;;;;4975076;28;20945;-54
2021/04/30 07:42:34;;;;;;;2.13;2.03;;;20.20;99.90;;;;;;4975110;28;20475;-53
2021/04/30 07:45:01;;;;;;;2.23;2.10;;;20.50;99.90;;;;;;4974920;28;20478;-54
2021/04/30 07:47:27;;;;;;;2.23;2.13;;;20.20;99.90;;;;;;4974768;28;20458;-55
2021/04/30 07:49:54;;;;;;;2.57;1.90;;;20.40;99.90;;;;;;4974701;28;20463;-54
2021/04/30 07:52:20;;;;;;;2.10;1.90;;;20.80;99.90;;;;;;4974486;28;20483;-53
2021/04/30 07:54:47;;;;;;;1.53;1.43;;;20.90;99.90;;;;;;4973066;28;20452;-54
2021/04/30 07:57:14;;;;;;;2.13;1.90;;;21.20;99.90;;;;;;4974606;28;20490;-54
2021/04/30 07:59:41;;;;;;;1.93;1.80;;;21.00;99.90;;;;;;4974718;28;20494;-52
2021/04/30 08:02:09;;;;;;;2.47;2.20;;;20.70;99.90;;;;;;4974480;28;20481;-54
2021/04/30 08:04:35;;;;;;;2.13;1.97;;;21.50;99.90;;;;;;4974256;28;20843;-53
2021/04/30 08:07:02;;;;;;;2.13;2.03;;;22.20;99.90;;;;;;4974197;28;20451;-53
2021/04/30 08:09:29;;;;;;;2.20;2.10;;;21.90;99.90;;;;;;4974100;28;20459;-53
2021/04/30 08:11:56;;;;;;;2.83;1.90;;;22.10;99.90;;;;;;4955563;28;20477;-53
2021/04/30 08:14:25;;;;;;;3.60;2.30;;;22.30;99.90;;;;;;4955210;28;20467;-53
2021/04/30 08:16:52;;;;;;;2.10;2.00;;;22.80;98.90;;;;;;4954624;28;20543;-53
2021/04/30 08:19:19;;;;;;;2.23;2.03;;;22.20;99.90;;;;;;4955115;28;20456;-53
2021/04/30 08:21:45;;;;;;;1.77;1.67;;;22.30;99.90;;;;;;4969703;28;20529;-53
2021/04/30 08:24:12;;;;;;;2.50;2.17;;;21.40;99.00;;;;;;4974294;28;20502;-53
2021/04/30 08:26:38;;;;;;;2.13;1.93;;;21.90;99.90;;;;;;4973617;28;20461;-53
2021/04/30 08:29:05;;;;;;;2.27;2.13;;;22.50;99.90;;;;;;4974107;28;20516;-54
2021/04/30 08:31:33;;;;;;;2.20;2.10;;;22.90;99.90;;;;;;4974008;28;20458;-53
2021/04/30 08:33:59;;;;;;;2.17;1.90;;;22.80;98.00;;;;;;4974266;28;20962;-54
2021/04/30 08:36:25;;;;;;;2.90;2.00;;;23.00;99.90;;;;;;4973757;28;20455;-54
2021/04/30 08:38:52;;;;;;;2.43;2.23;;;22.60;99.30;;;;;;4973844;28;20899;-53
2021/04/30 08:41:19;;;;;;;3.27;2.27;;;21.80;99.90;;;;;;4973678;28;22374;-53
2021/04/30 08:43:47;;;;;;;2.43;2.23;;;22.40;99.70;;;;;;4973922;28;20476;-53
2021/04/30 08:46:14;;;;;;;2.20;2.00;;;22.00;99.90;;;;;;4973551;28;20486;-53
2021/04/30 08:48:42;;;;;;;2.70;2.00;;;22.60;99.90;;;;;;4973982;28;20443;-53
2021/04/30 08:51:08;;;;;;;2.60;1.93;;;22.20;99.90;;;;;;4973768;28;20861;-53
2021/04/30 08:53:35;;;;;;;4.97;2.10;;;22.70;97.80;;;;;;4973494;28;20483;-53
2021/04/30 08:56:04;;;;;;;2.57;2.37;;;23.30;96.60;;;;;;4973505;28;20454;-53
2021/04/30 08:58:30;;;;;;;2.10;2.00;;;23.30;94.90;;;;;;4973306;28;20612;-53
2021/04/30 09:00:57;;;;;;;4.00;2.20;;;23.50;96.40;;;;;;4973544;28;20451;-53
2021/04/30 09:03:24;;;;;;;2.20;2.00;;;23.20;95.10;;;;;;4973644;28;20463;-53
2021/04/30 09:05:55;;;;;;;2.10;2.00;;;21.80;98.20;;;;;;4973548;28;20458;-53
2021/04/30 09:08:23;;;;;;;2.60;2.00;;;21.90;98.50;;;;;;4973471;28;20455;-53
2021/04/30 09:10:50;;;;;;;1.70;1.60;;;22.10;99.90;;;;;;4973482;28;20455;-53
2021/04/30 09:13:18;;;;;;;1.57;1.47;;;22.90;96.30;;;;;;4973300;28;20482;-53
2021/04/30 09:15:46;;;;;;;2.17;1.90;;;22.90;98.20;;;;;;4972895;28;20478;-53
2021/04/30 09:18:18;;;;;;;1.90;1.80;;;22.20;95.60;;;;;;4973276;28;20483;-54
2021/04/30 09:20:45;;;;;;;2.10;1.70;;;22.90;97.00;;;;;;4973324;28;20455;-53
2021/04/30 09:23:35;;;;;;;1.73;1.63;;;23.30;93.80;;;;;;4973205;28;20518;-53
2021/04/30 09:26:04;;;;;;;2.13;2.03;;;22.50;96.80;;;;;;4973476;28;20532;-53
2021/04/30 09:28:30;;;;;;;4.00;2.13;;;20.90;98.80;;;;;;4973191;28;20961;-53
2021/04/30 09:30:57;;;;;;;2.83;2.57;;;21.30;99.90;;;;;;4973077;28;20452;-53
2021/04/30 09:33:25;;;;;;;2.73;2.53;;;21.50;97.70;;;;;;4973190;28;20479;-53
2021/04/30 09:35:54;;;;;;;2.10;2.00;;;22.30;97.20;;;;;;4972913;28;20505;-53
2021/04/30 09:38:26;;;;;;;2.47;2.37;;;22.10;99.90;;;;;;4972887;28;20558;-53
2021/04/30 09:41:07;;;;;;;2.43;2.23;;;21.60;96.80;;;;;;4972921;28;20451;-53
2021/04/30 09:43:45;;;;;;;3.13;2.70;;;21.70;97.70;;;;;;4953767;28;20483;-53
2021/04/30 09:46:28;;;;;;;2.90;2.70;;;21.20;99.80;;;;;;4953517;29;20448;-54
2021/04/30 09:49:03;;;;;;;3.43;3.10;;;21.70;98.90;;;;;;4952602;28;20483;-54
2021/04/30 09:51:46;;;;;;;2.40;2.20;;;23.00;95.50;;;;;;4953759;28;20448;-54
2021/04/30 09:54:18;;;;;;;2.67;2.47;;;23.10;94.10;;;;;;4953629;29;20456;-53
2021/04/30 09:56:46;;;;;;;2.53;2.33;;;23.20;96.80;;;;;;4964482;28;20462;-53
2021/04/30 09:59:22;;;;;;;2.37;2.17;;;23.00;93.40;;;;;;4972751;28;20498;-54
2021/04/30 10:02:05;;;;;;;2.67;2.47;;;23.70;92.70;;;;;;4972973;28;20470;-54
2021/04/30 10:04:34;;;;;;;2.73;2.53;;;23.60;93.30;;;;;;4972763;28;20455;-53
2021/04/30 10:07:02;;;;;;;3.53;3.23;;;22.10;98.10;;;;;;4972769;28;20455;-54
2021/04/30 10:09:30;;;;;;;3.57;3.30;;;21.30;97.20;;;;;;4972734;28;20446;-53
2021/04/30 10:11:58;;;;;;;7.73;3.80;;;20.80;99.40;;;;;;4972692;28;20471;-53
2021/04/30 10:14:24;;;;;;;6.40;3.80;;;21.70;96.60;;;;;;4953631;28;20458;-54
2021/04/30 10:16:52;;;;;;;3.50;3.20;;;22.00;96.40;;;;;;4953348;29;20471;-54
2021/04/30 10:19:18;;;;;;;4.10;3.57;;;22.60;95.90;;;;;;4953222;29;20859;-53
2021/04/30 10:21:46;;;;;;;5.97;3.60;;;22.80;95.60;;;;;;4953331;28;20479;-54
2021/04/30 10:24:15;;;;;;;4.23;3.93;;;22.80;95.20;;;;;;4953378;29;20550;-54
2021/04/30 10:26:42;;;;;;;4.27;3.97;;;22.50;98.00;;;;;;4953460;29;21032;-54
2021/04/30 10:29:15;;;;;;;4.60;4.20;;;22.20;96.50;;;;;;4957133;28;20448;-54
2021/04/30 10:31:45;;;;;;;5.17;4.77;;;22.40;97.70;;;;;;4972754;28;20482;-54
2021/04/30 10:34:20;;;;;;;4.60;4.20;;;22.10;99.50;;;;;;4972549;28;20510;-56
2021/04/30 10:36:50;;;;;;;4.30;3.90;;;21.80;99.10;;;;;;4971916;28;20463;-54
2021/04/30 10:39:30;;;;;;;5.13;4.73;;;22.60;97.00;;;;;;4972199;28;21000;-54
2021/04/30 10:41:56;;;;;;;4.13;3.73;;;23.00;95.90;;;;;;4972573;28;20482;-54
2021/04/30 10:44:26;;;;;;;4.40;4.00;;;23.50;96.70;;;;;;4972428;28;20443;-54
2021/04/30 10:47:14;;;;;;;5.57;5.07;;;23.70;99.00;;;;;;4971676;28;20459;-53
2021/04/30 10:49:41;;;;;;;5.63;5.13;;;22.50;98.70;;;;;;4972102;28;20514;-53
2021/04/30 10:52:24;;;;;;;5.22;4.80;;;21.60;99.90;;;;;;4970627;28;20445;-53
2021/04/30 10:55:01;;;;;;;5.75;5.25;;;20.70;99.90;;;;;;4974315;28;20445;-54
2021/04/30 10:57:28;;;;;;;5.63;5.03;;;21.40;98.40;;;;;;4975065;28;20232;-53
2021/04/30 10:59:55;;;;;;;7.47;4.80;;;20.90;99.70;;;;;;4975553;28;20451;-51
2021/04/30 11:02:27;;;;;;;5.77;5.20;;;20.60;99.90;;;;;;4975172;28;20478;-50
2021/04/30 11:05:16;;;;;;;5.10;4.60;;;20.50;99.90;;;;;;4975207;28;20487;-51
2021/04/30 11:07:46;;;;;;;6.63;5.43;;;20.70;99.90;;;;;;4974676;28;20514;-51
2021/04/30 11:10:35;;;;;;;6.90;5.73;;;20.30;99.90;;;;;;4975922;28;20459;-51
2021/04/30 11:13:14;;;;;;;7.20;5.67;;;19.80;99.90;;;;;;4975441;28;20529;-51
2021/04/30 11:15:59;;;;;;;6.90;6.30;;;19.80;99.90;;;;;;4975291;28;20462;-51
2021/04/30 11:18:27;;;;;;;7.10;6.40;;;19.90;99.90;;;;;;4974822;28;21044;-50
2021/04/30 11:21:00;;;;;;;7.83;6.30;;;20.00;99.90;;;;;;4973583;28;20464;-51
2021/04/30 11:23:28;;;;;;;7.80;6.33;;;20.20;99.90;;;;;;4964700;28;20475;-50
2021/04/30 11:26:19;;;;;;;12.67;6.90;;;20.10;99.90;;;;;;4970086;28;20455;-50
2021/04/30 11:29:08;;;;;;;9.37;6.30;;;20.10;99.90;;;;;;4974352;28;20447;-51
2021/04/30 11:31:37;;;;;;;7.53;6.57;;;19.80;99.90;;;;;;4967069;28;20890;-51
2021/04/30 11:34:31;;;;;;;6.80;6.10;;;19.40;99.90;;;;;;4975187;28;20459;-51
2021/04/30 11:36:58;;;;;;;9.07;6.27;;;19.80;99.90;;;;;;4940221;28;20467;-50
2021/04/30 11:39:27;;;;;;;8.83;6.90;;;20.30;99.90;;;;;;4974488;28;20494;-51
2021/04/30 11:41:59;;;;;;;6.80;6.10;;;20.50;99.90;;;;;;4974935;28;20522;-51
2021/04/30 11:44:28;;;;;;;7.10;6.40;;;20.30;99.90;;;;;;4974608;28;20948;-51
2021/04/30 11:47:04;;;;;;;7.70;6.90;;;20.40;99.90;;;;;;4974737;28;20447;-51
2021/04/30 11:49:32;;;;;;;10.33;7.30;;;19.90;99.90;;;;;;4974292;28;20455;-51
2021/04/30 11:51:58;;;;;;;8.80;6.60;;;19.70;99.90;;;;;;4957451;28;21174;-52
2021/04/30 11:54:34;;;;;;;8.43;7.50;;;19.50;99.90;;;;;;4974217;28;20447;-52
2021/04/30 11:57:03;;;;;;;7.73;6.97;;;19.60;99.90;;;;;;4974580;28;20451;-51
2021/04/30 11:59:30;;;;;;;8.60;7.70;;;19.70;99.90;;;;;;4971327;28;20496;-52
2021/04/30 12:02:00;;;;;;;8.30;7.50;;;19.20;99.90;;;;;;4967999;28;20527;-51
2021/04/30 12:04:42;;;;;;;8.87;6.50;;;19.10;99.90;;;;;;4968511;28;20443;-51
2021/04/30 12:07:11;;;;;;;10.23;6.33;;;19.30;99.90;;;;;;4965036;28;20550;-52
2021/04/30 12:09:38;;;;;;;8.00;6.23;;;19.70;99.90;;;;;;4960834;28;20455;-52
2021/04/30 12:12:21;;;;;;;8.80;7.60;;;19.90;99.90;;;;;;4974234;28;21013;-52
2021/04/30 12:14:55;;;;;;;9.20;7.20;;;20.10;99.90;;;;;;4973718;28;20960;-52
2021/04/30 12:17:38;;;;;;;8.10;6.47;;;20.10;99.90;;;;;;4974207;28;20447;-52
2021/04/30 12:20:10;;;;;;;9.00;7.27;;;20.20;99.90;;;;;;4971674;28;20463;-52
2021/04/30 12:22:49;;;;;;;9.70;7.40;;;19.90;99.90;;;;;;4973750;28;20478;-51
2021/04/30 12:25:30;;;;;;;7.43;6.70;;;19.70;99.90;;;;;;4974082;28;20455;-51
2021/04/30 12:28:16;;;;;;;8.90;7.70;;;19.30;99.90;;;;;;4974223;28;20454;-51
2021/04/30 12:30:43;;;;;;;7.97;6.60;;;19.10;99.90;;;;;;4973952;28;20455;-51
2021/04/30 12:33:24;;;;;;;7.83;6.33;;;19.50;99.90;;;;;;4973779;28;20844;-51
2021/04/30 12:35:50;;;;;;;8.20;5.90;;;19.70;99.90;;;;;;4973660;28;21018;-52
2021/04/30 12:38:17;;;;;;;6.87;5.60;;;19.30;99.90;;;;;;4972216;28;20852;-52
2021/04/30 12:40:44;;;;;;;6.63;5.93;;;19.50;99.90;;;;;;4973737;28;20876;-52
2021/04/30 12:43:10;;;;;;;7.00;6.30;;;19.60;99.90;;;;;;4973697;28;20476;-51
2021/04/30 12:45:37;;;;;;;7.07;6.20;;;19.60;99.90;;;;;;4973316;28;20483;-51
2021/04/30 12:48:04;;;;;;;7.23;6.53;;;19.80;99.90;;;;;;4973625;28;20546;-52
2021/04/30 12:50:32;;;;;;;9.40;6.97;;;19.30;99.90;;;;;;4973696;28;20455;-52
2021/04/30 12:52:58;;;;;;;9.63;7.07;;;19.10;99.90;;;;;;4973427;28;20487;-52